Terminal Aerodrome Forecast
Issued by NWS

Home | Current Version | Previous Version | Text Only | Print | Product List | Glossary On
Versions: 1 2 3 4 5 6 7 8 9 10 11 12 13 14 15 16 17 18 19 20 21 22 23 24 25 26 27 28 29 30 31 32 33 34 35 36 37 38
000
FTUS45 KSLC 301120
TAFLGU
TAF
KLGU 301120Z 3012/0112 14005KT P6SM SCT120
     FM301500 23005KT P6SM SCT080 BKN120
     FM302000 20007KT P6SM BKN080 BKN200
     FM010300 VRB05KT P6SM BKN070 BKN120=

USA.gov is the U.S. government's official web portal to all federal, state and local government web resources and services.